sensor_id;sensor_type;location;lat;lon;timestamp;P1;durP1;ratioP1;P2;durP2;ratioP2
34035;SDS011;63481;52.588;22.472;2023-03-23T11:35:04;9.90;;;4.20;;
34035;SDS011;63481;52.588;22.472;2023-03-23T11:36:01;11.90;;;4.60;;
34035;SDS011;63481;52.588;22.472;2023-03-23T11:37:07;9.20;;;4.30;;
34035;SDS011;63481;52.588;22.472;2023-03-23T11:38:04;9.50;;;3.90;;
34035;SDS011;63481;52.588;22.472;2023-03-23T11:38:59;8.60;;;4.10;;
34035;SDS011;63481;52.588;22.472;2023-03-23T11:39:59;9.30;;;4.20;;
34035;SDS011;63481;52.588;22.472;2023-03-23T11:40:57;12.90;;;4.30;;
34035;SDS011;63481;52.588;22.472;2023-03-23T11:41:52;9.90;;;4.30;;
34035;SDS011;63481;52.588;22.472;2023-03-23T11:43:40;11.80;;;4.50;;
34035;SDS011;63481;52.588;22.472;2023-03-23T11:44:41;10.50;;;4.00;;
34035;SDS011;63481;52.588;22.472;2023-03-23T11:45:37;8.70;;;4.50;;
34035;SDS011;63481;52.588;22.472;2023-03-23T11:48:54;12.30;;;5.20;;
34035;SDS011;63481;52.588;22.472;2023-03-23T11:50:14;12.00;;;4.90;;
34035;SDS011;63481;52.588;22.472;2023-03-23T11:51:12;12.30;;;5.70;;
34035;SDS011;63481;52.588;22.472;2023-03-23T11:52:23;11.30;;;5.20;;
34035;SDS011;63481;52.588;22.472;2023-03-23T11:53:45;11.40;;;5.10;;
34035;SDS011;63481;52.588;22.472;2023-03-23T11:54:58;9.00;;;4.90;;
34035;SDS011;63481;52.588;22.472;2023-03-23T11:57:10;12.00;;;5.20;;
34035;SDS011;63481;52.588;22.472;2023-03-23T11:58:09;11.00;;;5.70;;
34035;SDS011;63481;52.588;22.472;2023-03-23T11:59:17;9.90;;;4.60;;
34035;SDS011;63481;52.588;22.472;2023-03-23T12:00:19;11.60;;;4.90;;
34035;SDS011;63481;52.588;22.472;2023-03-23T12:04:02;11.50;;;5.00;;
34035;SDS011;63481;52.588;22.472;2023-03-23T12:08:00;11.90;;;5.20;;
34035;SDS011;63481;52.588;22.472;2023-03-23T12:12:19;11.60;;;5.40;;
34035;SDS011;63481;52.588;22.472;2023-03-23T12:14:18;10.70;;;5.10;;
34035;SDS011;63481;52.588;22.472;2023-03-23T12:16:47;10.90;;;4.60;;
34035;SDS011;63481;52.588;22.472;2023-03-23T12:17:45;9.20;;;4.70;;
34035;SDS011;63481;52.588;22.472;2023-03-23T12:20:08;10.60;;;4.80;;
34035;SDS011;63481;52.588;22.472;2023-03-23T12:24:57;11.70;;;5.20;;
34035;SDS011;63481;52.588;22.472;2023-03-23T12:31:15;13.00;;;5.20;;
34035;SDS011;63481;52.588;22.472;2023-03-23T12:34:40;8.90;;;4.10;;
34035;SDS011;63481;52.588;22.472;2023-03-23T12:35:49;9.90;;;4.40;;
34035;SDS011;63481;52.588;22.472;2023-03-23T12:36:53;8.90;;;4.00;;
34035;SDS011;63481;52.588;22.472;2023-03-23T12:39:43;9.40;;;4.50;;
34035;SDS011;63481;52.588;22.472;2023-03-23T12:44:09;9.70;;;3.90;;
34035;SDS011;63481;52.588;22.472;2023-03-23T12:45:17;8.80;;;4.50;;
34035;SDS011;63481;52.588;22.472;2023-03-23T12:48:22;9.80;;;4.30;;
34035;SDS011;63481;52.588;22.472;2023-03-23T12:50:18;8.40;;;4.10;;
34035;SDS011;63481;52.588;22.472;2023-03-23T12:53:46;9.90;;;4.30;;
34035;SDS011;63481;52.588;22.472;2023-03-23T12:55:02;9.00;;;4.00;;
34035;SDS011;63481;52.588;22.472;2023-03-23T12:58:15;10.50;;;4.40;;
34035;SDS011;63481;52.588;22.472;2023-03-23T13:01:11;9.20;;;4.40;;
34035;SDS011;63481;52.588;22.472;2023-03-23T13:03:14;7.60;;;3.70;;
34035;SDS011;63481;52.588;22.472;2023-03-23T13:04:11;10.00;;;4.30;;
34035;SDS011;63481;52.588;22.472;2023-03-23T13:05:57;9.90;;;4.10;;
34035;SDS011;63481;52.588;22.472;2023-03-23T13:06:40;11.20;;;4.30;;
34035;SDS011;63481;52.588;22.472;2023-03-23T13:07:37;11.30;;;3.70;;
34035;SDS011;63481;52.588;22.472;2023-03-23T13:08:40;8.30;;;3.10;;
34035;SDS011;63481;52.588;22.472;2023-03-23T13:11:08;7.70;;;3.30;;
34035;SDS011;63481;52.588;22.472;2023-03-23T13:12:11;8.10;;;3.50;;
34035;SDS011;63481;52.588;22.472;2023-03-23T13:13:06;9.60;;;3.00;;
34035;SDS011;63481;52.588;22.472;2023-03-23T13:17:06;5.40;;;2.90;;
34035;SDS011;63481;52.588;22.472;2023-03-23T13:19:14;8.40;;;3.10;;
34035;SDS011;63481;52.588;22.472;2023-03-23T13:23:29;8.20;;;2.70;;
34035;SDS011;63481;52.588;22.472;2023-03-23T13:24:29;6.80;;;2.50;;
34035;SDS011;63481;52.588;22.472;2023-03-23T13:26:42;5.70;;;2.50;;
34035;SDS011;63481;52.588;22.472;2023-03-23T13:27:36;5.40;;;2.50;;
34035;SDS011;63481;52.588;22.472;2023-03-23T13:28:32;7.20;;;2.60;;
34035;SDS011;63481;52.588;22.472;2023-03-23T13:29:43;5.90;;;2.40;;
34035;SDS011;63481;52.588;22.472;2023-03-23T13:30:39;6.90;;;2.60;;
34035;SDS011;63481;52.588;22.472;2023-03-23T13:31:33;6.20;;;3.20;;
34035;SDS011;63481;52.588;22.472;2023-03-23T13:32:36;8.50;;;2.80;;
34035;SDS011;63481;52.588;22.472;2023-03-23T13:33:32;7.40;;;2.30;;
34035;SDS011;63481;52.588;22.472;2023-03-23T13:34:31;6.90;;;3.00;;
34035;SDS011;63481;52.588;22.472;2023-03-23T13:35:24;6.20;;;2.90;;
34035;SDS011;63481;52.588;22.472;2023-03-23T13:36:18;6.80;;;2.90;;
34035;SDS011;63481;52.588;22.472;2023-03-23T13:37:20;7.90;;;2.70;;
34035;SDS011;63481;52.588;22.472;2023-03-23T13:38:21;6.20;;;2.60;;
34035;SDS011;63481;52.588;22.472;2023-03-23T13:39:21;5.70;;;2.70;;
34035;SDS011;63481;52.588;22.472;2023-03-23T13:40:24;7.30;;;2.90;;
34035;SDS011;63481;52.588;22.472;2023-03-23T13:41:21;7.30;;;3.10;;
34035;SDS011;63481;52.588;22.472;2023-03-23T13:43:08;6.10;;;2.90;;
34035;SDS011;63481;52.588;22.472;2023-03-23T13:44:16;6.50;;;2.90;;
34035;SDS011;63481;52.588;22.472;2023-03-23T13:46:29;11.70;;;2.90;;
34035;SDS011;63481;52.588;22.472;2023-03-23T13:48:18;6.10;;;2.80;;
34035;SDS011;63481;52.588;22.472;2023-03-23T13:49:19;7.40;;;3.00;;
34035;SDS011;63481;52.588;22.472;2023-03-23T13:53:44;6.50;;;2.70;;
34035;SDS011;63481;52.588;22.472;2023-03-23T13:54:43;7.20;;;3.10;;
34035;SDS011;63481;52.588;22.472;2023-03-23T13:55:41;6.70;;;2.70;;
34035;SDS011;63481;52.588;22.472;2023-03-23T13:56:53;6.80;;;2.80;;
34035;SDS011;63481;52.588;22.472;2023-03-23T13:57:54;7.30;;;2.70;;
34035;SDS011;63481;52.588;22.472;2023-03-23T13:58:49;6.70;;;2.80;;
34035;SDS011;63481;52.588;22.472;2023-03-23T13:59:54;8.50;;;2.50;;
34035;SDS011;63481;52.588;22.472;2023-03-23T14:00:50;10.50;;;2.90;;
34035;SDS011;63481;52.588;22.472;2023-03-23T14:01:54;6.60;;;2.80;;
34035;SDS011;63481;52.588;22.472;2023-03-23T14:02:49;8.50;;;2.60;;
34035;SDS011;63481;52.588;22.472;2023-03-23T14:03:43;6.70;;;2.50;;
34035;SDS011;63481;52.588;22.472;2023-03-23T14:04:42;7.10;;;2.90;;
34035;SDS011;63481;52.588;22.472;2023-03-23T14:05:42;6.10;;;2.60;;
34035;SDS011;63481;52.588;22.472;2023-03-23T14:06:36;6.10;;;2.50;;
34035;SDS011;63481;52.588;22.472;2023-03-23T14:07:32;6.70;;;2.60;;
34035;SDS011;63481;52.588;22.472;2023-03-23T14:10:21;6.60;;;2.90;;
34035;SDS011;63481;52.588;22.472;2023-03-23T14:11:16;5.60;;;2.50;;
34035;SDS011;63481;52.588;22.472;2023-03-23T14:12:26;6.20;;;2.70;;
34035;SDS011;63481;52.588;22.472;2023-03-23T14:13:21;7.90;;;3.00;;
34035;SDS011;63481;52.588;22.472;2023-03-23T14:14:20;7.70;;;2.80;;
34035;SDS011;63481;52.588;22.472;2023-03-23T14:15:17;6.00;;;2.60;;
34035;SDS011;63481;52.588;22.472;2023-03-23T14:17:16;7.10;;;2.80;;
34035;SDS011;63481;52.588;22.472;2023-03-23T14:18:20;7.30;;;2.80;;
34035;SDS011;63481;52.588;22.472;2023-03-23T14:19:21;7.60;;;3.00;;
34035;SDS011;63481;52.588;22.472;2023-03-23T14:21:39;7.30;;;2.70;;
34035;SDS011;63481;52.588;22.472;2023-03-23T14:22:37;7.80;;;3.10;;
34035;SDS011;63481;52.588;22.472;2023-03-23T14:23:31;7.70;;;2.80;;
34035;SDS011;63481;52.588;22.472;2023-03-23T14:24:26;7.40;;;2.60;;
34035;SDS011;63481;52.588;22.472;2023-03-23T14:25:21;6.20;;;2.50;;
34035;SDS011;63481;52.588;22.472;2023-03-23T14:26:16;5.40;;;2.50;;
34035;SDS011;63481;52.588;22.472;2023-03-23T14:27:15;6.50;;;2.90;;
34035;SDS011;63481;52.588;22.472;2023-03-23T14:28:16;7.00;;;2.70;;
34035;SDS011;63481;52.588;22.472;2023-03-23T14:29:13;7.90;;;2.70;;
34035;SDS011;63481;52.588;22.472;2023-03-23T14:30:07;6.30;;;2.70;;
34035;SDS011;63481;52.588;22.472;2023-03-23T14:31:05;6.90;;;3.00;;
34035;SDS011;63481;52.588;22.472;2023-03-23T14:32:10;6.70;;;2.50;;
34035;SDS011;63481;52.588;22.472;2023-03-23T14:33:09;5.50;;;2.50;;
34035;SDS011;63481;52.588;22.472;2023-03-23T14:34:10;6.40;;;2.90;;
34035;SDS011;63481;52.588;22.472;2023-03-23T14:35:12;5.20;;;2.50;;
34035;SDS011;63481;52.588;22.472;2023-03-23T14:36:09;7.50;;;2.80;;
34035;SDS011;63481;52.588;22.472;2023-03-23T14:37:02;6.10;;;2.80;;
34035;SDS011;63481;52.588;22.472;2023-03-23T14:37:56;6.30;;;2.50;;
34035;SDS011;63481;52.588;22.472;2023-03-23T14:39:00;6.90;;;2.70;;
34035;SDS011;63481;52.588;22.472;2023-03-23T14:39:59;9.10;;;2.70;;
34035;SDS011;63481;52.588;22.472;2023-03-23T14:40:51;5.50;;;2.60;;
34035;SDS011;63481;52.588;22.472;2023-03-23T14:41:45;6.00;;;2.60;;
34035;SDS011;63481;52.588;22.472;2023-03-23T14:42:38;8.10;;;2.90;;
34035;SDS011;63481;52.588;22.472;2023-03-23T14:43:32;6.80;;;2.90;;
34035;SDS011;63481;52.588;22.472;2023-03-23T14:44:28;5.80;;;3.10;;
34035;SDS011;63481;52.588;22.472;2023-03-23T14:45:23;5.70;;;2.80;;
34035;SDS011;63481;52.588;22.472;2023-03-23T14:46:16;6.90;;;2.80;;
34035;SDS011;63481;52.588;22.472;2023-03-23T14:48:35;7.30;;;2.90;;
34035;SDS011;63481;52.588;22.472;2023-03-23T14:49:38;5.80;;;2.80;;
34035;SDS011;63481;52.588;22.472;2023-03-23T14:51:32;8.50;;;2.80;;
34035;SDS011;63481;52.588;22.472;2023-03-23T14:52:26;6.80;;;3.20;;
34035;SDS011;63481;52.588;22.472;2023-03-23T14:54:15;8.70;;;3.30;;
34035;SDS011;63481;52.588;22.472;2023-03-23T14:55:12;7.80;;;3.10;;
34035;SDS011;63481;52.588;22.472;2023-03-23T14:56:10;9.00;;;3.00;;
34035;SDS011;63481;52.588;22.472;2023-03-23T14:57:19;6.50;;;3.00;;
34035;SDS011;63481;52.588;22.472;2023-03-23T14:58:20;6.80;;;3.20;;
34035;SDS011;63481;52.588;22.472;2023-03-23T14:59:14;9.70;;;3.30;;
34035;SDS011;63481;52.588;22.472;2023-03-23T15:00:11;8.40;;;3.30;;
34035;SDS011;63481;52.588;22.472;2023-03-23T15:01:09;8.60;;;3.40;;
34035;SDS011;63481;52.588;22.472;2023-03-23T15:02:04;9.90;;;3.50;;
34035;SDS011;63481;52.588;22.472;2023-03-23T15:02:57;8.00;;;3.60;;
34035;SDS011;63481;52.588;22.472;2023-03-23T15:05:09;8.90;;;3.00;;
34035;SDS011;63481;52.588;22.472;2023-03-23T15:06:08;9.20;;;3.60;;
34035;SDS011;63481;52.588;22.472;2023-03-23T15:07:06;7.80;;;3.70;;
34035;SDS011;63481;52.588;22.472;2023-03-23T15:08:34;7.20;;;3.30;;
34035;SDS011;63481;52.588;22.472;2023-03-23T15:09:24;9.00;;;3.30;;
34035;SDS011;63481;52.588;22.472;2023-03-23T15:10:19;8.30;;;3.50;;
34035;SDS011;63481;52.588;22.472;2023-03-23T15:11:21;7.40;;;3.00;;
34035;SDS011;63481;52.588;22.472;2023-03-23T15:12:21;8.40;;;3.70;;
34035;SDS011;63481;52.588;22.472;2023-03-23T15:14:14;8.90;;;3.50;;
34035;SDS011;63481;52.588;22.472;2023-03-23T15:15:42;11.40;;;3.90;;
34035;SDS011;63481;52.588;22.472;2023-03-23T15:16:31;8.50;;;3.70;;
34035;SDS011;63481;52.588;22.472;2023-03-23T15:17:28;10.10;;;3.60;;
34035;SDS011;63481;52.588;22.472;2023-03-23T15:18:29;10.00;;;4.00;;
34035;SDS011;63481;52.588;22.472;2023-03-23T15:19:41;9.80;;;3.40;;
34035;SDS011;63481;52.588;22.472;2023-03-23T15:20:48;8.20;;;3.50;;
34035;SDS011;63481;52.588;22.472;2023-03-23T15:21:48;8.70;;;3.10;;
34035;SDS011;63481;52.588;22.472;2023-03-23T15:23:22;7.80;;;3.30;;
34035;SDS011;63481;52.588;22.472;2023-03-23T15:24:23;7.60;;;3.40;;
34035;SDS011;63481;52.588;22.472;2023-03-23T15:26:24;7.50;;;3.00;;
34035;SDS011;63481;52.588;22.472;2023-03-23T15:27:30;13.10;;;3.90;;
34035;SDS011;63481;52.588;22.472;2023-03-23T15:28:29;8.50;;;3.30;;
34035;SDS011;63481;52.588;22.472;2023-03-23T15:29:26;12.10;;;3.90;;
34035;SDS011;63481;52.588;22.472;2023-03-23T15:30:29;11.30;;;3.90;;
34035;SDS011;63481;52.588;22.472;2023-03-23T15:31:27;10.70;;;3.70;;
34035;SDS011;63481;52.588;22.472;2023-03-23T15:32:21;11.30;;;4.10;;
34035;SDS011;63481;52.588;22.472;2023-03-23T15:33:15;12.50;;;4.20;;
34035;SDS011;63481;52.588;22.472;2023-03-23T15:34:11;10.80;;;3.70;;
34035;SDS011;63481;52.588;22.472;2023-03-23T15:35:17;10.10;;;3.80;;
34035;SDS011;63481;52.588;22.472;2023-03-23T15:36:16;13.60;;;4.10;;
34035;SDS011;63481;52.588;22.472;2023-03-23T15:37:25;10.70;;;4.30;;
34035;SDS011;63481;52.588;22.472;2023-03-23T15:38:21;11.30;;;4.90;;
34035;SDS011;63481;52.588;22.472;2023-03-23T15:39:16;9.90;;;4.50;;
34035;SDS011;63481;52.588;22.472;2023-03-23T15:40:15;11.90;;;4.90;;
34035;SDS011;63481;52.588;22.472;2023-03-23T15:41:23;10.30;;;4.50;;
34035;SDS011;63481;52.588;22.472;2023-03-23T15:42:24;11.50;;;5.40;;
34035;SDS011;63481;52.588;22.472;2023-03-23T15:43:23;14.90;;;6.20;;
34035;SDS011;63481;52.588;22.472;2023-03-23T15:44:36;9.30;;;3.80;;
34035;SDS011;63481;52.588;22.472;2023-03-23T15:45:28;12.00;;;4.60;;
34035;SDS011;63481;52.588;22.472;2023-03-23T15:46:22;11.40;;;4.60;;
34035;SDS011;63481;52.588;22.472;2023-03-23T15:47:16;7.80;;;3.80;;
34035;SDS011;63481;52.588;22.472;2023-03-23T15:48:11;11.90;;;5.00;;
34035;SDS011;63481;52.588;22.472;2023-03-23T15:49:07;11.50;;;5.70;;
34035;SDS011;63481;52.588;22.472;2023-03-23T15:50:07;12.30;;;6.20;;
34035;SDS011;63481;52.588;22.472;2023-03-23T15:51:06;14.60;;;6.50;;
34035;SDS011;63481;52.588;22.472;2023-03-23T15:51:59;12.10;;;7.00;;
34035;SDS011;63481;52.588;22.472;2023-03-23T15:52:52;16.00;;;7.30;;
34035;SDS011;63481;52.588;22.472;2023-03-23T15:53:45;15.30;;;6.70;;
34035;SDS011;63481;52.588;22.472;2023-03-23T15:54:38;22.00;;;8.50;;
34035;SDS011;63481;52.588;22.472;2023-03-23T15:55:37;19.70;;;10.00;;
34035;SDS011;63481;52.588;22.472;2023-03-23T15:56:30;16.60;;;9.30;;
34035;SDS011;63481;52.588;22.472;2023-03-23T15:57:23;28.50;;;13.20;;
34035;SDS011;63481;52.588;22.472;2023-03-23T15:58:15;17.90;;;9.20;;
34035;SDS011;63481;52.588;22.472;2023-03-23T15:59:08;16.30;;;7.80;;
34035;SDS011;63481;52.588;22.472;2023-03-23T16:00:01;14.10;;;6.60;;
34035;SDS011;63481;52.588;22.472;2023-03-23T16:01:25;11.00;;;5.30;;
34035;SDS011;63481;52.588;22.472;2023-03-23T16:02:21;9.60;;;4.90;;
34035;SDS011;63481;52.588;22.472;2023-03-23T16:03:18;11.30;;;5.20;;
34035;SDS011;63481;52.588;22.472;2023-03-23T16:04:17;14.40;;;6.00;;
34035;SDS011;63481;52.588;22.472;2023-03-23T16:05:11;8.80;;;4.40;;
34035;SDS011;63481;52.588;22.472;2023-03-23T16:06:04;10.80;;;5.10;;
34035;SDS011;63481;52.588;22.472;2023-03-23T16:06:57;14.40;;;5.70;;
34035;SDS011;63481;52.588;22.472;2023-03-23T16:07:51;13.30;;;6.30;;
34035;SDS011;63481;52.588;22.472;2023-03-23T16:08:44;14.10;;;6.70;;
34035;SDS011;63481;52.588;22.472;2023-03-23T16:09:37;15.10;;;5.60;;
34035;SDS011;63481;52.588;22.472;2023-03-23T16:10:30;7.40;;;3.70;;
34035;SDS011;63481;52.588;22.472;2023-03-23T16:11:24;10.10;;;5.00;;
34035;SDS011;63481;52.588;22.472;2023-03-23T16:12:18;9.50;;;3.80;;
34035;SDS011;63481;52.588;22.472;2023-03-23T16:13:11;10.00;;;3.90;;
34035;SDS011;63481;52.588;22.472;2023-03-23T16:14:03;12.20;;;5.50;;
34035;SDS011;63481;52.588;22.472;2023-03-23T16:14:56;10.30;;;4.00;;
34035;SDS011;63481;52.588;22.472;2023-03-23T16:15:48;9.20;;;3.90;;
34035;SDS011;63481;52.588;22.472;2023-03-23T16:16:43;9.70;;;4.00;;
34035;SDS011;63481;52.588;22.472;2023-03-23T16:17:38;7.00;;;3.50;;
34035;SDS011;63481;52.588;22.472;2023-03-23T16:18:31;8.80;;;3.70;;
34035;SDS011;63481;52.588;22.472;2023-03-23T16:19:24;7.40;;;3.40;;
34035;SDS011;63481;52.588;22.472;2023-03-23T16:20:21;10.40;;;3.70;;
34035;SDS011;63481;52.588;22.472;2023-03-23T16:21:14;7.10;;;3.80;;
34035;SDS011;63481;52.588;22.472;2023-03-23T16:22:07;7.70;;;3.80;;
34035;SDS011;63481;52.588;22.472;2023-03-23T16:23:00;8.50;;;3.40;;
34035;SDS011;63481;52.588;22.472;2023-03-23T16:23:53;8.40;;;3.70;;
34035;SDS011;63481;52.588;22.472;2023-03-23T16:24:46;11.60;;;3.60;;
34035;SDS011;63481;52.588;22.472;2023-03-23T16:25:38;7.70;;;3.80;;
34035;SDS011;63481;52.588;22.472;2023-03-23T16:26:31;9.80;;;3.90;;
34035;SDS011;63481;52.588;22.472;2023-03-23T16:27:24;10.50;;;4.00;;
34035;SDS011;63481;52.588;22.472;2023-03-23T16:28:16;11.30;;;4.80;;
34035;SDS011;63481;52.588;22.472;2023-03-23T16:29:10;11.70;;;4.40;;
34035;SDS011;63481;52.588;22.472;2023-03-23T16:30:14;8.20;;;3.80;;
34035;SDS011;63481;52.588;22.472;2023-03-23T16:31:07;10.70;;;4.30;;
34035;SDS011;63481;52.588;22.472;2023-03-23T16:32:00;10.30;;;4.60;;
34035;SDS011;63481;52.588;22.472;2023-03-23T16:32:53;20.00;;;4.60;;
34035;SDS011;63481;52.588;22.472;2023-03-23T16:33:45;9.40;;;3.80;;
34035;SDS011;63481;52.588;22.472;2023-03-23T16:34:38;10.40;;;4.60;;
34035;SDS011;63481;52.588;22.472;2023-03-23T16:35:31;10.30;;;4.10;;
34035;SDS011;63481;52.588;22.472;2023-03-23T16:36:23;11.70;;;4.10;;
34035;SDS011;63481;52.588;22.472;2023-03-23T16:37:16;11.90;;;4.70;;
34035;SDS011;63481;52.588;22.472;2023-03-23T16:38:11;11.00;;;4.20;;
34035;SDS011;63481;52.588;22.472;2023-03-23T16:39:05;12.90;;;4.60;;
34035;SDS011;63481;52.588;22.472;2023-03-23T16:39:58;11.80;;;5.00;;
34035;SDS011;63481;52.588;22.472;2023-03-23T16:40:52;13.00;;;5.10;;
34035;SDS011;63481;52.588;22.472;2023-03-23T16:41:44;11.30;;;4.50;;
34035;SDS011;63481;52.588;22.472;2023-03-23T16:42:37;11.70;;;4.40;;
34035;SDS011;63481;52.588;22.472;2023-03-23T16:43:31;10.20;;;4.40;;
34035;SDS011;63481;52.588;22.472;2023-03-23T16:44:24;9.20;;;4.60;;
34035;SDS011;63481;52.588;22.472;2023-03-23T16:45:18;9.90;;;4.20;;
34035;SDS011;63481;52.588;22.472;2023-03-23T16:46:11;10.20;;;4.20;;
34035;SDS011;63481;52.588;22.472;2023-03-23T16:47:05;10.60;;;4.70;;
34035;SDS011;63481;52.588;22.472;2023-03-23T16:47:57;13.40;;;4.70;;
34035;SDS011;63481;52.588;22.472;2023-03-23T16:48:53;12.90;;;4.90;;
34035;SDS011;63481;52.588;22.472;2023-03-23T16:49:46;11.20;;;4.40;;
34035;SDS011;63481;52.588;22.472;2023-03-23T16:50:39;12.00;;;4.60;;
34035;SDS011;63481;52.588;22.472;2023-03-23T16:51:34;9.40;;;4.50;;
34035;SDS011;63481;52.588;22.472;2023-03-23T16:52:27;9.70;;;3.80;;
34035;SDS011;63481;52.588;22.472;2023-03-23T16:53:20;9.30;;;4.20;;
34035;SDS011;63481;52.588;22.472;2023-03-23T16:54:14;9.20;;;4.20;;
34035;SDS011;63481;52.588;22.472;2023-03-23T16:55:08;8.60;;;4.20;;
34035;SDS011;63481;52.588;22.472;2023-03-23T16:56:03;8.60;;;4.00;;
34035;SDS011;63481;52.588;22.472;2023-03-23T16:56:56;9.80;;;4.40;;
34035;SDS011;63481;52.588;22.472;2023-03-23T16:57:49;12.20;;;4.00;;
34035;SDS011;63481;52.588;22.472;2023-03-23T16:58:43;8.20;;;4.10;;
34035;SDS011;63481;52.588;22.472;2023-03-23T16:59:36;8.10;;;4.10;;
34035;SDS011;63481;52.588;22.472;2023-03-23T17:00:30;9.10;;;4.40;;
34035;SDS011;63481;52.588;22.472;2023-03-23T17:01:23;9.10;;;4.00;;
34035;SDS011;63481;52.588;22.472;2023-03-23T17:02:17;8.00;;;3.80;;
34035;SDS011;63481;52.588;22.472;2023-03-23T17:03:10;8.30;;;3.90;;
34035;SDS011;63481;52.588;22.472;2023-03-23T17:04:04;8.00;;;3.90;;
34035;SDS011;63481;52.588;22.472;2023-03-23T17:04:58;8.50;;;4.30;;
34035;SDS011;63481;52.588;22.472;2023-03-23T17:05:51;9.00;;;4.60;;
34035;SDS011;63481;52.588;22.472;2023-03-23T17:06:45;10.90;;;4.30;;
34035;SDS011;63481;52.588;22.472;2023-03-23T17:07:38;9.50;;;4.50;;
34035;SDS011;63481;52.588;22.472;2023-03-23T17:08:33;12.50;;;5.40;;
34035;SDS011;63481;52.588;22.472;2023-03-23T17:09:26;11.80;;;5.10;;
34035;SDS011;63481;52.588;22.472;2023-03-23T17:10:19;13.80;;;5.30;;
34035;SDS011;63481;52.588;22.472;2023-03-23T17:11:12;13.20;;;6.10;;
34035;SDS011;63481;52.588;22.472;2023-03-23T17:12:05;11.20;;;5.90;;
34035;SDS011;63481;52.588;22.472;2023-03-23T17:12:58;11.50;;;5.40;;
34035;SDS011;63481;52.588;22.472;2023-03-23T17:13:50;15.40;;;5.80;;
34035;SDS011;63481;52.588;22.472;2023-03-23T17:14:43;14.10;;;6.80;;
34035;SDS011;63481;52.588;22.472;2023-03-23T17:15:36;14.00;;;6.50;;
34035;SDS011;63481;52.588;22.472;2023-03-23T17:16:30;9.60;;;4.60;;
34035;SDS011;63481;52.588;22.472;2023-03-23T17:17:23;9.70;;;4.80;;
34035;SDS011;63481;52.588;22.472;2023-03-23T17:18:16;11.10;;;5.00;;
34035;SDS011;63481;52.588;22.472;2023-03-23T17:19:08;10.30;;;4.90;;
34035;SDS011;63481;52.588;22.472;2023-03-23T17:20:02;9.30;;;4.30;;
34035;SDS011;63481;52.588;22.472;2023-03-23T17:20:55;8.70;;;4.50;;
34035;SDS011;63481;52.588;22.472;2023-03-23T17:21:48;10.40;;;4.10;;
34035;SDS011;63481;52.588;22.472;2023-03-23T17:22:40;11.40;;;4.70;;
34035;SDS011;63481;52.588;22.472;2023-03-23T17:23:33;8.70;;;4.40;;
34035;SDS011;63481;52.588;22.472;2023-03-23T17:24:26;10.50;;;4.50;;
34035;SDS011;63481;52.588;22.472;2023-03-23T17:25:19;9.30;;;4.80;;
34035;SDS011;63481;52.588;22.472;2023-03-23T17:26:11;9.40;;;4.20;;
34035;SDS011;63481;52.588;22.472;2023-03-23T17:27:04;11.00;;;4.90;;
34035;SDS011;63481;52.588;22.472;2023-03-23T17:27:57;10.50;;;4.80;;
34035;SDS011;63481;52.588;22.472;2023-03-23T17:28:50;9.80;;;4.70;;
34035;SDS011;63481;52.588;22.472;2023-03-23T17:29:43;9.60;;;4.60;;
34035;SDS011;63481;52.588;22.472;2023-03-23T17:30:38;9.80;;;4.70;;
34035;SDS011;63481;52.588;22.472;2023-03-23T17:31:31;10.00;;;4.80;;
34035;SDS011;63481;52.588;22.472;2023-03-23T17:32:24;11.10;;;5.40;;
34035;SDS011;63481;52.588;22.472;2023-03-23T17:33:17;12.00;;;5.50;;
34035;SDS011;63481;52.588;22.472;2023-03-23T17:34:10;8.90;;;4.60;;
34035;SDS011;63481;52.588;22.472;2023-03-23T17:35:03;10.10;;;5.00;;
34035;SDS011;63481;52.588;22.472;2023-03-23T17:35:56;14.20;;;5.30;;
34035;SDS011;63481;52.588;22.472;2023-03-23T17:36:49;9.50;;;4.90;;
34035;SDS011;63481;52.588;22.472;2023-03-23T17:37:41;9.50;;;4.90;;
34035;SDS011;63481;52.588;22.472;2023-03-23T17:38:34;11.20;;;5.40;;
34035;SDS011;63481;52.588;22.472;2023-03-23T17:39:27;12.00;;;4.80;;
34035;SDS011;63481;52.588;22.472;2023-03-23T17:40:19;8.50;;;4.50;;
34035;SDS011;63481;52.588;22.472;2023-03-23T17:41:12;9.70;;;5.30;;
34035;SDS011;63481;52.588;22.472;2023-03-23T17:42:04;12.10;;;5.10;;
34035;SDS011;63481;52.588;22.472;2023-03-23T17:42:57;10.80;;;5.10;;
34035;SDS011;63481;52.588;22.472;2023-03-23T17:43:49;11.40;;;5.30;;
34035;SDS011;63481;52.588;22.472;2023-03-23T17:44:43;15.20;;;5.30;;
34035;SDS011;63481;52.588;22.472;2023-03-23T17:45:36;11.40;;;5.00;;
34035;SDS011;63481;52.588;22.472;2023-03-23T17:46:29;12.40;;;5.40;;
34035;SDS011;63481;52.588;22.472;2023-03-23T17:47:23;12.80;;;5.20;;
34035;SDS011;63481;52.588;22.472;2023-03-23T17:48:16;10.10;;;5.50;;
34035;SDS011;63481;52.588;22.472;2023-03-23T17:49:09;12.30;;;5.40;;
34035;SDS011;63481;52.588;22.472;2023-03-23T17:50:03;11.40;;;5.90;;
34035;SDS011;63481;52.588;22.472;2023-03-23T17:50:58;13.20;;;6.20;;
34035;SDS011;63481;52.588;22.472;2023-03-23T17:51:53;11.50;;;5.30;;
34035;SDS011;63481;52.588;22.472;2023-03-23T17:52:46;11.90;;;5.90;;
34035;SDS011;63481;52.588;22.472;2023-03-23T17:53:41;9.90;;;5.20;;
34035;SDS011;63481;52.588;22.472;2023-03-23T17:54:37;11.60;;;5.50;;
34035;SDS011;63481;52.588;22.472;2023-03-23T17:55:30;13.70;;;5.80;;
34035;SDS011;63481;52.588;22.472;2023-03-23T17:56:24;9.60;;;5.10;;
34035;SDS011;63481;52.588;22.472;2023-03-23T17:57:17;10.50;;;5.10;;
34035;SDS011;63481;52.588;22.472;2023-03-23T17:58:10;11.70;;;5.70;;
34035;SDS011;63481;52.588;22.472;2023-03-23T17:59:03;10.90;;;5.50;;
34035;SDS011;63481;52.588;22.472;2023-03-23T17:59:57;9.70;;;5.30;;
34035;SDS011;63481;52.588;22.472;2023-03-23T18:00:50;11.00;;;5.40;;
34035;SDS011;63481;52.588;22.472;2023-03-23T18:01:43;10.50;;;5.60;;
34035;SDS011;63481;52.588;22.472;2023-03-23T18:02:39;12.10;;;5.60;;
34035;SDS011;63481;52.588;22.472;2023-03-23T18:03:32;11.10;;;6.10;;
34035;SDS011;63481;52.588;22.472;2023-03-23T18:04:25;11.00;;;5.60;;
34035;SDS011;63481;52.588;22.472;2023-03-23T18:05:19;11.20;;;5.60;;
34035;SDS011;63481;52.588;22.472;2023-03-23T18:06:12;10.80;;;5.60;;
34035;SDS011;63481;52.588;22.472;2023-03-23T18:07:05;10.50;;;5.40;;
34035;SDS011;63481;52.588;22.472;2023-03-23T18:07:58;13.20;;;5.30;;
34035;SDS011;63481;52.588;22.472;2023-03-23T18:08:52;10.80;;;5.40;;
34035;SDS011;63481;52.588;22.472;2023-03-23T18:09:45;11.70;;;5.80;;
34035;SDS011;63481;52.588;22.472;2023-03-23T18:10:39;10.40;;;5.30;;
34035;SDS011;63481;52.588;22.472;2023-03-23T18:11:32;13.80;;;5.80;;
34035;SDS011;63481;52.588;22.472;2023-03-23T18:12:25;12.40;;;5.90;;
34035;SDS011;63481;52.588;22.472;2023-03-23T18:13:18;12.90;;;5.40;;
34035;SDS011;63481;52.588;22.472;2023-03-23T18:14:12;12.30;;;5.90;;
34035;SDS011;63481;52.588;22.472;2023-03-23T18:15:05;9.90;;;5.40;;
34035;SDS011;63481;52.588;22.472;2023-03-23T18:16:02;11.60;;;5.60;;
34035;SDS011;63481;52.588;22.472;2023-03-23T18:16:56;11.50;;;5.50;;
34035;SDS011;63481;52.588;22.472;2023-03-23T18:17:48;10.80;;;5.30;;
34035;SDS011;63481;52.588;22.472;2023-03-23T18:18:43;12.90;;;5.70;;
34035;SDS011;63481;52.588;22.472;2023-03-23T18:19:38;11.80;;;6.00;;
34035;SDS011;63481;52.588;22.472;2023-03-23T18:20:32;11.60;;;5.80;;
34035;SDS011;63481;52.588;22.472;2023-03-23T18:21:26;11.60;;;5.50;;
34035;SDS011;63481;52.588;22.472;2023-03-23T18:22:19;10.80;;;6.00;;